Manbij, Syria
Current Conditions -  °F | °C
As of 6:50 PM on Monday 22 Dec 2014 (Local Time) from LTAJ Reporting Station
Light Rain Light Rain  
Wind Chill: 34°   Ceiling: 9000
Heat Index: 41°   Visibility: 6mi
Dew Point: 36°   Wind: 12mph
Humidity: 81%   Direction: 360°N
Pressure: 29.97"   Gusts: NA
Location:  36.54°N, 37.96°E
Report Text: LTAJ 221550Z 36010KT 9999 -RA SCT030 BKN090 05/02 Q1015 NOSIG
Loading
Personal Weather Stations






























Interactive Weather Map New forecast layout! Learn more

10-Day Weather Forecast

Advertisements
Track Severe Weather on mobile